Data for 07/01/2009

Time Sea-Level Adjusted Pressure Absolute Pressure Temperature Relative Humidity Dew Point   
(mb) (inHg) (mb) (inHg) (C) (F) (%) (C) (F)
00:05 1017 30.03 847 25.01 15.5 60 61 8.1 46.6
00:10 1018 30.06 847 25.01 15.4 59.8 64 8.8 47.9
00:15 1018 30.06 847 25.01 15 59.1 65 8.6 47.5
00:20 1018 30.06 847 25.01 15 59.1 66 8.8 47.8
00:25 1018 30.06 847 25.01 15 58.9 67 8.9 47.9
00:30 1018 30.06 847 25.01 15.1 59.2 64 8.4 47.2
00:35 1018 30.06 847 25.01 15.3 59.6 63 8.5 47.3
00:40 1018 30.06 847 25.01 15.7 60.2 62 8.5 47.2
00:45 1018 30.06 847 25.01 15.8 60.4 66 9.6 49.2
00:50 1018 30.06 847 25.01 15.6 60 64 8.8 47.8
00:55 1018 30.06 847 25.01 16.1 61 62 8.9 48
01:00 1018 30.06 847 25.01 15.8 60.5 67 9.8 49.6
01:05 1018 30.06 847 25.01 15.9 60.6 60 8.3 46.9
01:10 1018 30.06 847 25.01 16.4 61.5 59 8.4 47
01:15 1018 30.06 847 25.01 16.3 61.4 62 9.2 48.6
01:20 1018 30.06 847 25.01 15.7 60.2 61 8.1 46.6
01:25 1018 30.06 847 25.01 15.8 60.5 60 8.1 46.5
01:30 1018 30.06 847 25.01 16 60.8 58 7.9 46.2
01:35 1018 30.06 847 25.01 16 60.8 59 8.1 46.6
01:40 1018 30.06 847 25.01 16 60.8 58 7.9 46.2
01:45 1018 30.06 847 25.01 15.9 60.7 59 8 46.5
01:50 1018 30.06 847 25.01 15.8 60.4 62 8.6 47.5
01:55 1018 30.06 847 25.01 15.6 60 59 7.6 45.6
02:00 1018 30.06 847 25.01 15.9 60.6 60 8.1 46.6
02:05 1018 30.06 847 25.01 16 60.7 58 7.8 46.1
02:10 1018 30.06 847 25.01 16 60.7 59 8 46.5
02:15 1018 30.06 847 25.01 15.7 60.3 60 8.1 46.5
02:20 1018 30.06 847 25.01 15.7 60.2 60 8 46.3
02:25 1018 30.06 847 25.01 15.9 60.5 57 7.5 45.5
02:30 1018 30.06 847 25.01 16.2 61.1 56 7.5 45.5
02:35 1018 30.06 847 25.01 16.2 61.1 57 7.7 45.9
02:40 1018 30.06 847 25.01 16 60.8 58 7.7 45.9
02:45 1018 30.06 847 25.01 15.9 60.6 58 7.7 45.9
02:50 1018 30.06 847 25.01 15.8 60.5 59 7.8 46.1
02:55 1018 30.06 847 25.01 15.6 60 62 8.4 47.1
03:00 1018 30.06 847 25.01 15.2 59.4 62 8.1 46.6
03:05 1018 30.06 847 25.01 15.4 59.6 61 8 46.4
03:10 1018 30.06 847 25.01 15.5 59.8 62 8.3 47
03:15 1018 30.06 847 25.01 15.1 59.3 65 8.7 47.7
03:20 1018 30.06 847 25.01 14.8 58.7 65 8.4 47.1
03:25 1018 30.06 847 25.01 14.8 58.6 65 8.4 47.1
03:30 1018 30.06 847 25.01 14.5 58.2 68 8.7 47.6
03:35 1018 30.06 847 25.01 14.5 58.1 66 8.4 47.1
03:40 1018 30.06 847 25.01 14.5 58 66 8.3 47
03:45 1018 30.06 847 25.01 14.6 58.2 66 8.3 46.9
03:50 1018 30.06 847 25.01 14.7 58.4 67 8.7 47.6
03:55 1018 30.06 847 25.01 14.3 57.8 66 8.2 46.8
04:00 1018 30.06 847 25.01 14.3 57.7 68 8.6 47.5
04:05 1018 30.06 847 25.01 14.2 57.6 66 8.1 46.6
04:10 1018 30.06 847 25.01 14.4 57.9 66 8.1 46.7
04:15 1018 30.06 847 25.01 14.2 57.6 65 7.7 45.9
04:20 1018 30.06 847 25.01 14.7 58.4 63 7.8 46
04:25 1018 30.06 847 25.01 14.9 58.8 64 8.1 46.6
04:30 1018 30.06 847 25.01 14.6 58.3 65 8.3 46.9
04:35 1018 30.06 847 25.01 14.3 57.8 66 8.2 46.7
04:40 1018 30.06 847 25.01 14.3 57.7 67 8.3 46.9
04:45 1018 30.06 847 25.01 13.9 57 69 8.4 47.1
04:50 1018 30.06 847 25.01 13.7 56.7 69 8.1 46.6
04:55 1018 30.06 847 25.01 13.9 57 68 8.1 46.7
05:00 1018 30.06 847 25.01 13.8 56.9 70 8.4 47.1
05:05 1018 30.06 847 25.01 13.4 56.1 70 8.2 46.7
05:10 1018 30.06 847 25.01 13.4 56.1 70 8.1 46.6
05:15 1018 30.06 848 25.04 13.4 56 70 8.1 46.6
05:20 1018 30.06 848 25.04 13.4 56 70 8 46.5
05:25 1018 30.06 848 25.04 13.4 56.1 70 8 46.4
05:30 1018 30.06 848 25.04 13.3 56 70 8 46.4
05:35 1018 30.06 848 25.04 13.2 55.7 71 8.1 46.5
05:40 1018 30.06 848 25.04 13 55.4 72 8.1 46.5
05:45 1018 30.06 848 25.04 12.8 55.1 72 8 46.4
05:50 1018 30.06 848 25.04 12.9 55.2 71 7.8 46.1
05:55 1019 30.09 848 25.04 13 55.3 71 7.9 46.3
06:00 1019 30.09 848 25.04 12.7 54.9 71 7.7 45.9
06:05 1019 30.09 848 25.04 13.1 55.6 68 7.5 45.5
06:10 1019 30.09 848 25.04 13.3 55.9 68 7.6 45.6
06:15 1019 30.09 848 25.04 13.5 56.3 67 7.5 45.5
06:20 1019 30.09 848 25.04 13.5 56.3 66 7.3 45.2
06:25 1019 30.09 848 25.04 13.8 56.8 66 7.5 45.5
06:30 1019 30.09 848 25.04 13.8 56.8 66 7.6 45.6
06:35 1019 30.09 848 25.04 13.6 56.4 67 7.7 45.8
06:40 1019 30.09 848 25.04 13.6 56.5 66 7.5 45.6
06:45 1019 30.09 848 25.04 13.8 56.8 66 7.7 45.8
06:50 1019 30.09 848 25.04 13.8 56.8 67 7.8 46
06:55 1019 30.09 848 25.04 13.9 57 66 7.8 46
07:00 1019 30.09 848 25.04 14 57.2 67 8 46.3
07:05 1019 30.09 848 25.04 14 57.2 67 8 46.3
07:10 1019 30.09 849 25.07 14 57.3 68 8.4 47.1
07:15 1019 30.09 849 25.07 14.3 57.7 68 8.5 47.3
07:20 1020 30.12 849 25.07 14.6 58.3 66 8.3 47
07:25 1020 30.12 849 25.07 15 58.9 63 8 46.5
07:30 1020 30.12 849 25.07 15.2 59.3 64 8.4 47.1
07:35 1020 30.12 849 25.07 15.5 59.9 63 8.6 47.4
07:40 1020 30.12 849 25.07 16 60.8 62 8.7 47.7
07:45 1020 30.12 849 25.07 16.2 61.2 60 8.6 47.5
07:50 1020 30.12 849 25.07 16.6 61.9 58 8.3 46.9
07:55 1020 30.12 849 25.07 17 62.5 58 8.8 47.9
08:00 1020 30.12 849 25.07 16.8 62.3 58 8.7 47.7
08:05 1020 30.12 849 25.07 16.9 62.4 56 8.1 46.6
08:10 1020 30.12 849 25.07 17.5 63.4 59 9.4 48.9
08:15 1020 30.12 849 25.07 16.6 61.9 61 9.2 48.6
08:20 1020 30.12 849 25.07 16.8 62.2 63 9.8 49.7
08:25 1020 30.12 849 25.07 16.7 62 66 10.4 50.8
08:30 1020 30.12 849 25.07 16.3 61.3 67 10.2 50.3
08:35 1020 30.12 849 25.07 16.6 61.8 64 9.9 49.7
08:40 1020 30.12 849 25.07 17 62.5 64 10.3 50.5
08:45 1020 30.12 849 25.07 16.7 62.1 64 10 49.9
08:50 1020 30.12 850 25.1 16.9 62.3 66 10.6 51
08:55 1020 30.12 850 25.1 17.5 63.5 62 10.2 50.4
09:00 1020 30.12 850 25.1 17.5 63.5 62 10.3 50.6
09:05 1020 30.12 850 25.1 17.2 63 62 9.8 49.7
09:10 1020 30.12 850 25.1 17.4 63.4 61 10 50
09:15 1020 30.12 850 25.1 17.8 64 61 10.3 50.5
09:20 1021 30.15 850 25.1 17.9 64.3 62 10.7 51.2
09:25 1021 30.15 850 25.1 18 64.4 60 10.3 50.6
09:30 1021 30.15 850 25.1 18.1 64.5 60 10.3 50.6
09:35 1021 30.15 850 25.1 18 64.3 59 9.9 49.7
09:40 1021 30.15 850 25.1 17.6 63.7 60 9.8 49.6
09:45 1021 30.15 850 25.1 17.7 63.9 58 9.5 49.2
09:50 1021 30.15 850 25.1 17.9 64.2 56 9.2 48.6
09:55 1021 30.15 850 25.1 17.9 64.2 57 9.3 48.7
10:00 1021 30.15 850 25.1 18.2 64.7 58 9.9 49.8
10:05 1021 30.15 850 25.1 17.4 63.3 58 9.2 48.6
10:10 1021 30.15 850 25.1 18.2 64.7 55 9.1 48.4
10:15 1021 30.15 850 25.1 18 64.4 57 9.5 49
10:20 1021 30.15 850 25.1 17.6 63.6 57 9 48.1
10:25 1021 30.15 850 25.1 17.1 62.7 58 8.8 47.9
10:30 1021 30.15 850 25.1 17.1 62.8 58 8.8 47.8
10:35 1021 30.15 850 25.1 17.4 63.3 58 9.2 48.5
10:40 1021 30.15 850 25.1 17.9 64.3 55 8.8 47.9
10:45 1021 30.15 850 25.1 18 64.4 54 8.8 47.8
10:50 1021 30.15 850 25.1 18.7 65.6 55 9.5 49
10:55 1021 30.15 850 25.1 18.7 65.7 53 9.2 48.6
11:00 1021 30.15 850 25.1 17.5 63.6 56 8.7 47.7
11:05 1021 30.15 850 25.1 17.9 64.3 55 8.8 47.8
11:10 1021 30.15 850 25.1 18.4 65.2 53 8.9 48
11:15 1021 30.15 850 25.1 18.6 65.4 54 9.3 48.7
11:20 1021 30.15 850 25.1 18.4 65.2 53 8.7 47.6
11:25 1021 30.15 850 25.1 19 66.2 49 8.3 47
11:30 1021 30.15 850 25.1 18.7 65.6 52 8.7 47.7
11:35 1021 30.15 850 25.1 18.4 65.1 53 8.6 47.6
11:40 1021 30.15 850 25.1 18.7 65.7 51 8.4 47.2
11:45 1021 30.15 850 25.1 19 66.2 50 8.5 47.3
11:50 1021 30.15 850 25.1 19.4 67 48 8.3 47
11:55 1021 30.15 850 25.1 19.5 67.2 46 7.9 46.2
12:00 1021 30.15 850 25.1 19.4 66.8 49 8.4 47.1
12:05 1021 30.15 850 25.1 19.6 67.3 47 8.2 46.8
12:10 1021 30.15 850 25.1 19.4 67 48 8.3 46.9
12:15 1021 30.15 850 25.1 19.7 67.4 46 7.7 45.9
12:20 1021 30.15 850 25.1 20.7 69.2 46 8.7 47.6
12:25 1021 30.15 850 25.1 20.7 69.2 43 7.9 46.2
12:30 1021 30.15 850 25.1 20.7 69.3 46 8.8 47.9
12:35 1021 30.15 850 25.1 19.7 67.4 48 8.5 47.3
12:40 1021 30.15 850 25.1 20.1 68.2 47 8.7 47.6
12:45 1021 30.15 850 25.1 20 68.1 46 8.2 46.8
12:50 1021 30.15 850 25.1 20.9 69.6 45 8.6 47.5
12:55 1021 30.15 850 25.1 21.3 70.3 43 8.4 47
13:00 1021 30.15 850 25.1 21.1 70 46 9.3 48.7
13:05 1021 30.15 850 25.1 21.4 70.6 43 8.4 47.2
13:10 1021 30.15 850 25.1 22.1 71.8 41 8.3 46.9
13:15 1021 30.15 850 25.1 22.8 73 40 8.8 47.8
13:20 1021 30.15 850 25.1 23 73.5 39 8.4 47.1
13:25 1021 30.15 850 25.1 22.3 72.2 41 8.6 47.5
13:30 1020 30.12 850 25.1 22.6 72.6 40 8.6 47.5
13:35 1020 30.12 850 25.1 22.5 72.5 41 8.8 47.8
13:40 1020 30.12 850 25.1 22.5 72.5 41 8.8 47.8
13:45 1020 30.12 850 25.1 22.3 72.1 43 9.1 48.5
13:50 1020 30.12 850 25.1 22.1 71.8 42 8.9 48
13:55 1020 30.12 850 25.1 22.5 72.5 41 8.8 47.9
14:00 1020 30.12 850 25.1 22.7 72.8 41 8.8 47.9
14:05 1020 30.12 850 25.1 23 73.3 41 9.2 48.6
14:10 1020 30.12 850 25.1 23.3 74 43 10.2 50.3
14:15 1020 30.12 849 25.07 22.9 73.2 40 8.9 48
14:20 1020 30.12 849 25.07 22.6 72.7 42 9.1 48.5
14:25 1020 30.12 849 25.07 22.8 73.1 41 9.1 48.4
14:30 1020 30.12 849 25.07 22.5 72.4 44 9.7 49.5
14:35 1020 30.12 849 25.07 22.9 73.1 42 9.4 49
14:40 1020 30.12 849 25.07 23.2 73.8 41 9.2 48.6
14:45 1020 30.12 849 25.07 24.2 75.5 37 8.9 48.1
14:50 1020 30.12 849 25.07 24.1 75.3 39 9.5 49.1
14:55 1020 30.12 849 25.07 24.2 75.6 40 9.9 49.7
15:00 1020 30.12 849 25.07 24.5 76.1 38 9.3 48.7
15:05 1020 30.12 849 25.07 24.1 75.3 40 9.8 49.6
15:10 1020 30.12 849 25.07 23.9 75 39 9.5 49
15:15 1020 30.12 849 25.07 24.3 75.7 42 10.6 51.1
15:20 1020 30.12 849 25.07 23.7 74.6 40 9.5 49.1
15:25 1020 30.12 849 25.07 24.2 75.6 38 9.4 48.9
15:30 1020 30.12 849 25.07 24.9 76.8 37 9.6 49.3
15:35 1020 30.12 849 25.07 24.7 76.5 40 10.4 50.8
15:40 1020 30.12 849 25.07 24 75.2 41 10.1 50.3
15:45 1020 30.12 849 25.07 23.6 74.4 40 9.5 49.1
15:50 1020 30.12 849 25.07 24.1 75.4 39 9.5 49
15:55 1020 30.12 849 25.07 25.2 77.3 37 9.8 49.6
16:00 1020 30.12 849 25.07 24.9 76.8 37 9.5 49.2
16:05 1020 30.12 849 25.07 24.6 76.4 39 10.2 50.3
16:10 1020 30.12 849 25.07 24.6 76.4 38 9.5 49
16:15 1020 30.12 849 25.07 25.7 78.3 36 9.9 49.8
16:20 1020 30.12 849 25.07 26.6 79.9 34 9.6 49.4
16:25 1020 30.12 849 25.07 25.9 78.7 38 10.6 51.1
16:30 1020 30.12 849 25.07 25.2 77.3 36 9.2 48.6
16:35 1020 30.12 849 25.07 26.1 78.9 34 9.4 48.9
16:40 1020 30.12 849 25.07 26 78.9 30 7.5 45.5
16:45 1019 30.09 849 25.07 26.4 79.5 32 8.5 47.3
16:50 1019 30.09 849 25.07 26.4 79.5 32 8.5 47.3
16:55 1019 30.09 849 25.07 25.7 78.3 32 8.2 46.8
17:00 1019 30.09 849 25.07 25.4 77.7 33 8 46.4
17:05 1019 30.09 849 25.07 25.1 77.3 33 8.1 46.5
17:10 1019 30.09 849 25.07 25.9 78.6 31 7.8 46
17:15 1019 30.09 848 25.04 26.7 80 31 8.4 47.2
17:20 1019 30.09 848 25.04 26.6 79.8 32 8.9 48.1
17:25 1019 30.09 848 25.04 26.1 78.9 32 8.5 47.3
17:30 1019 30.09 848 25.04 25.8 78.4 27 5.8 42.5
17:35 1019 30.09 848 25.04 25.6 78.1 28 5.9 42.6
17:40 1019 30.09 848 25.04 25.7 78.3 27 5.6 42.1
17:45 1019 30.09 848 25.04 26.1 79 25 4.6 40.3
17:50 1019 30.09 848 25.04 26.1 79 29 6.9 44.5
17:55 1019 30.09 848 25.04 26.2 79.1 29 7 44.6
18:00 1019 30.09 848 25.04 25.8 78.4 31 7.5 45.5
18:05 1019 30.09 848 25.04 26.3 79.3 31 8.2 46.7
18:10 1019 30.09 848 25.04 25.7 78.3 32 8 46.4
18:15 1019 30.09 848 25.04 25.6 78.1 33 8.2 46.8
18:20 1019 30.09 848 25.04 25.1 77.2 32 7.7 45.9
18:25 1019 30.09 848 25.04 24.9 76.8 34 8.3 47
18:30 1019 30.09 848 25.04 24.5 76.1 35 8.1 46.6
18:35 1019 30.09 848 25.04 24.6 76.3 35 8.4 47.1
18:40 1019 30.09 848 25.04 24.5 76 35 8.2 46.7
18:45 1019 30.09 848 25.04 24.3 75.8 38 9.4 48.9
18:50 1019 30.09 848 25.04 24 75.2 39 9.5 49.1
18:55 1019 30.09 848 25.04 23.9 75 40 9.6 49.3
19:00 1019 30.09 848 25.04 23.7 74.6 41 9.7 49.5
19:05 1019 30.09 848 25.04 23.3 73.9 42 10 50
19:10 1019 30.09 848 25.04 23 73.5 43 9.9 49.8
19:15 1019 30.09 848 25.04 22.9 73.2 44 10.2 50.3
19:20 1019 30.09 848 25.04 22.7 72.9 44 10.2 50.3
19:25 1019 30.09 848 25.04 22.6 72.6 46 10.4 50.7
19:30 1019 30.09 848 25.04 22.4 72.4 47 10.7 51.3
19:35 1019 30.09 848 25.04 22.2 71.9 47 10.5 50.9
19:40 1019 30.09 848 25.04 21.9 71.3 48 10.5 51
19:45 1019 30.09 848 25.04 21.7 71 49 10.7 51.2
19:50 1019 30.09 848 25.04 21.5 70.6 50 10.6 51.1
19:55 1019 30.09 848 25.04 21.3 70.4 50 10.6 51.2
20:00 1019 30.09 848 25.04 21.3 70.3 50 10.7 51.3
20:05 1019 30.09 848 25.04 21.2 70.1 51 10.7 51.3
20:10 1019 30.09 848 25.04 21 69.8 51 10.7 51.3
20:15 1019 30.09 848 25.04 20.9 69.6 52 10.9 51.6
20:20 1019 30.09 848 25.04 20.8 69.4 52 10.8 51.5
20:25 1019 30.09 848 25.04 20.6 69.2 53 10.7 51.3
20:30 1019 30.09 848 25.04 20.5 68.9 53 10.8 51.5
20:35 1019 30.09 848 25.04 20.4 68.7 54 10.9 51.5
20:40 1019 30.09 848 25.04 20.3 68.5 54 10.8 51.5
20:45 1019 30.09 848 25.04 20.1 68.2 54 10.8 51.4
20:50 1019 30.09 849 25.07 20 68 55 10.8 51.4
20:55 1019 30.09 849 25.07 19.9 67.7 55 10.7 51.3
21:00 1019 30.09 849 25.07 19.7 67.5 56 10.8 51.4
21:05 1019 30.09 849 25.07 19.6 67.2 56 10.6 51.1
21:10 1020 30.12 849 25.07 19.5 67.1 56 10.7 51.2
21:15 1020 30.12 849 25.07 19.3 66.8 57 10.6 51.2
21:20 1020 30.12 849 25.07 19.2 66.6 57 10.7 51.2
21:25 1020 30.12 849 25.07 19 66.3 58 10.6 51.1
21:30 1020 30.12 849 25.07 18.9 66 58 10.5 50.9
21:35 1020 30.12 849 25.07 18.8 65.9 58 10.5 50.9
21:40 1020 30.12 849 25.07 18.7 65.6 59 10.5 51
21:45 1020 30.12 849 25.07 18.6 65.4 59 10.5 50.8
21:50 1020 30.12 849 25.07 18.5 65.3 59 10.4 50.8
21:55 1020 30.12 849 25.07 18.4 65.1 60 10.5 50.9
22:00 1020 30.12 849 25.07 18.3 65 59 10.4 50.7
22:05 1020 30.12 850 25.1 18.3 64.9 60 10.4 50.7
22:10 1020 30.12 850 25.1 18.2 64.8 60 10.3 50.6
22:15 1020 30.12 850 25.1 18.2 64.7 60 10.3 50.5
22:20 1020 30.12 850 25.1 18.2 64.7 60 10.3 50.5
22:25 1020 30.12 850 25.1 18 64.5 59 10.1 50.2
22:30 1021 30.15 850 25.1 18 64.4 60 10.2 50.4
22:35 1021 30.15 850 25.1 17.9 64.3 60 10.2 50.3
22:40 1021 30.15 850 25.1 17.9 64.1 61 10.2 50.4
22:45 1021 30.15 850 25.1 17.8 64 61 10.2 50.4
22:50 1021 30.15 850 25.1 17.7 63.8 61 10.2 50.4
22:55 1021 30.15 850 25.1 17.6 63.7 61 10.2 50.3
23:00 1021 30.15 850 25.1 17.6 63.7 61 10.1 50.2
23:05 1021 30.15 850 25.1 17.6 63.6 61 10.1 50.1
23:10 1020 30.12 850 25.1 17.5 63.5 61 10.1 50.2
23:15 1021 30.15 850 25.1 17.4 63.4 62 10 50.1
23:20 1021 30.15 850 25.1 17.4 63.3 62 10 50.1
23:25 1021 30.15 850 25.1 17.3 63.1 62 10 50.1
23:30 1021 30.15 850 25.1 17.2 63 62 9.9 49.9
23:35 1021 30.15 850 25.1 17.2 63 62 10 49.9
23:40 1020 30.12 850 25.1 17.2 62.9 62 9.8 49.7
23:45 1021 30.15 850 25.1 17.2 62.9 62 9.9 49.8
23:50 1020 30.12 850 25.1 17.1 62.7 62 9.8 49.7
23:55 1020 30.12 850 25.1 17.1 62.7 62 9.8 49.6
24:00 1020 30.12 850 25.1 17.1 62.8 62 9.9 49.7